Time;durP1;ratioP1;P1;durP2;ratioP2;P2;SDS_P1;SDS_P2;PMS_P1;PMS_P2;Temp;Humidity;BMP_temperature;BMP_pressure;BME280_temperature;BME280_humidity;BME280_pressure;Samples;Min_cycle;Max_cycle;Signal;HPM_P1;HPM_P2
2023/04/24 00:00:05;;;;;;;1.83;1.35;;;10.70;99.90;;;;;;5064323;28;20050;-71
2023/04/24 00:02:31;;;;;;;1.40;1.30;;;10.70;99.90;;;;;;5084914;28;20123;-72
2023/04/24 00:04:57;;;;;;;2.05;1.95;;;10.70;99.90;;;;;;5120327;27;20052;-71
2023/04/24 00:07:22;;;;;;;2.08;1.88;;;10.70;99.90;;;;;;5088716;28;20032;-71
2023/04/24 00:09:48;;;;;;;2.40;2.05;;;10.60;99.90;;;;;;5087098;28;20048;-71
2023/04/24 00:12:14;;;;;;;2.70;2.50;;;10.60;99.90;;;;;;5077441;28;20085;-71
2023/04/24 00:14:40;;;;;;;2.28;2.10;;;10.50;99.90;;;;;;5074168;28;20409;-71
2023/04/24 00:17:06;;;;;;;3.13;2.85;;;10.50;99.90;;;;;;5089379;28;20050;-71
2023/04/24 00:19:32;;;;;;;2.85;2.65;;;10.50;99.90;;;;;;5077271;28;20752;-72
2023/04/24 00:21:58;;;;;;;3.78;3.47;;;10.50;99.90;;;;;;5074477;28;20059;-71
2023/04/24 00:24:23;;;;;;;3.28;2.95;;;10.40;99.90;;;;;;5089442;28;20032;-71
2023/04/24 00:26:49;;;;;;;3.42;3.22;;;10.50;99.90;;;;;;5089126;28;20513;-71
2023/04/24 00:29:15;;;;;;;6.05;3.45;;;10.40;99.90;;;;;;5083910;28;20036;-71
2023/04/24 00:31:40;;;;;;;3.13;2.92;;;10.40;99.90;;;;;;5083246;28;20071;-71
2023/04/24 00:34:07;;;;;;;2.83;2.63;;;10.40;99.90;;;;;;5084834;28;20041;-72
2023/04/24 00:36:33;;;;;;;3.53;3.22;;;10.40;99.90;;;;;;5081109;28;20080;-71
2023/04/24 00:38:58;;;;;;;3.28;2.97;;;10.40;99.90;;;;;;5082649;28;20579;-71
2023/04/24 00:41:27;;;;;;;3.80;3.38;;;10.30;99.90;;;;;;5087556;28;20054;-71
2023/04/24 00:43:53;;;;;;;4.25;3.85;;;10.30;99.90;;;;;;5079535;28;20082;-71
2023/04/24 00:46:19;;;;;;;3.25;2.95;;;10.30;99.90;;;;;;5084177;28;20036;-71
2023/04/24 00:48:46;;;;;;;3.05;2.75;;;10.30;99.90;;;;;;5085549;28;20052;-71
2023/04/24 00:51:11;;;;;;;3.85;3.55;;;10.30;99.90;;;;;;5085058;28;20048;-71
2023/04/24 00:53:37;;;;;;;4.25;3.63;;;10.30;99.90;;;;;;5119521;27;20048;-71
2023/04/24 00:56:04;;;;;;;4.28;3.88;;;10.30;99.90;;;;;;5085261;28;20039;-71
2023/04/24 00:58:31;;;;;;;4.03;3.72;;;10.30;99.90;;;;;;5078419;28;20040;-71
2023/04/24 01:00:58;;;;;;;5.53;4.35;;;10.20;99.90;;;;;;5086079;28;20055;-71
2023/04/24 01:03:29;;;;;;;4.57;4.18;;;10.30;99.90;;;;;;5083290;28;20848;-71
2023/04/24 01:05:56;;;;;;;4.93;4.43;;;10.30;99.90;;;;;;5085626;28;20133;-71
2023/04/24 01:08:24;;;;;;;5.07;4.57;;;10.30;99.90;;;;;;5088378;28;20157;-71
2023/04/24 01:10:51;;;;;;;;;;;10.30;99.90;;;;;;5096009;28;20213;-71
2023/04/24 01:13:17;;;;;;;5.30;4.80;;;10.30;99.90;;;;;;5088073;28;19971;-71
2023/04/24 01:15:43;;;;;;;10.98;4.57;;;10.30;99.90;;;;;;5083452;28;20052;-71
2023/04/24 01:18:09;;;;;;;5.53;4.80;;;10.30;99.90;;;;;;5073041;28;20048;-71
2023/04/24 01:20:39;;;;;;;4.55;4.10;;;10.30;99.90;;;;;;5071435;28;20040;-71
2023/04/24 01:23:06;;;;;;;4.80;4.38;;;10.30;99.90;;;;;;5108817;27;20099;-71
2023/04/24 01:25:32;;;;;;;4.57;4.18;;;10.30;99.90;;;;;;5068659;28;20058;-71
2023/04/24 01:27:58;;;;;;;5.55;5.05;;;10.30;99.90;;;;;;5086378;28;20055;-71
2023/04/24 01:30:24;;;;;;;5.85;5.25;;;10.30;99.90;;;;;;5086294;28;20052;-71
2023/04/24 01:32:51;;;;;;;8.00;5.53;;;10.40;99.90;;;;;;5095559;28;20477;-71
2023/04/24 01:35:17;;;;;;;4.85;4.43;;;10.30;99.90;;;;;;5090008;28;20382;-71
2023/04/24 01:37:43;;;;;;;4.03;3.72;;;10.30;99.90;;;;;;5073150;28;20043;-72
2023/04/24 01:40:09;;;;;;;4.43;4.13;;;10.30;99.90;;;;;;5086435;28;20059;-71
2023/04/24 01:42:36;;;;;;;4.60;4.20;;;10.20;99.90;;;;;;5086982;28;20585;-71
2023/04/24 01:45:05;;;;;;;4.50;4.13;;;10.20;99.90;;;;;;5077868;28;20751;-71
2023/04/24 01:47:31;;;;;;;5.45;5.03;;;10.20;99.90;;;;;;5085600;28;20087;-71
2023/04/24 01:49:57;;;;;;;5.95;5.40;;;10.10;99.90;;;;;;5090367;28;20113;-71
2023/04/24 01:52:24;;;;;;;5.97;5.47;;;10.10;99.90;;;;;;5080088;28;20052;-71
2023/04/24 01:54:50;;;;;;;7.55;6.85;;;10.10;99.90;;;;;;5082215;28;20056;-71
2023/04/24 01:57:16;;;;;;;7.03;6.43;;;10.10;99.90;;;;;;5083466;28;20094;-71
2023/04/24 01:59:42;;;;;;;8.48;6.72;;;10.10;99.90;;;;;;5082911;28;20495;-70
2023/04/24 02:02:08;;;;;;;8.30;6.93;;;10.10;99.90;;;;;;5083846;28;20044;-71
2023/04/24 02:04:33;;;;;;;7.63;6.78;;;10.00;99.90;;;;;;5075315;28;20127;-70
2023/04/24 02:07:00;;;;;;;8.27;7.43;;;10.00;99.90;;;;;;5074161;28;20112;-71
2023/04/24 02:09:26;;;;;;;8.00;7.18;;;10.00;99.90;;;;;;5078497;28;20485;-70
2023/04/24 02:11:51;;;;;;;8.18;7.47;;;9.90;99.90;;;;;;5078140;28;20055;-71
2023/04/24 02:14:17;;;;;;;8.20;7.35;;;9.90;99.90;;;;;;5080585;28;20081;-70
2023/04/24 02:16:44;;;;;;;9.15;8.35;;;9.90;99.90;;;;;;5080993;28;20055;-71
2023/04/24 02:19:10;;;;;;;9.30;8.40;;;9.80;99.90;;;;;;5087169;28;20048;-71
2023/04/24 02:21:36;;;;;;;9.35;8.45;;;9.80;99.90;;;;;;5086992;28;20049;-70
2023/04/24 02:24:02;;;;;;;9.10;8.30;;;9.80;99.90;;;;;;5081109;28;20053;-70
2023/04/24 02:26:27;;;;;;;8.68;7.90;;;9.80;99.90;;;;;;5077967;28;20040;-71
2023/04/24 02:28:53;;;;;;;8.38;7.68;;;9.80;99.90;;;;;;5068610;28;20067;-71
2023/04/24 02:31:19;;;;;;;8.43;7.72;;;9.80;99.90;;;;;;5077598;28;20040;-71
2023/04/24 02:33:44;;;;;;;10.68;8.30;;;9.80;99.90;;;;;;5083612;28;20531;-72
2023/04/24 02:36:11;;;;;;;10.48;9.38;;;9.80;99.90;;;;;;5091193;28;20051;-71
2023/04/24 02:38:37;;;;;;;9.45;8.38;;;9.80;99.90;;;;;;5082928;28;20052;-71
2023/04/24 02:41:05;;;;;;;9.13;8.25;;;9.80;99.90;;;;;;5085939;28;20048;-71
2023/04/24 02:43:32;;;;;;;9.00;8.20;;;9.70;99.90;;;;;;5082334;28;20056;-71
2023/04/24 02:45:58;;;;;;;10.30;9.38;;;9.70;99.90;;;;;;5088481;28;20071;-71
2023/04/24 02:48:23;;;;;;;10.15;9.10;;;9.70;99.90;;;;;;5090555;28;20067;-71
2023/04/24 02:50:50;;;;;;;9.25;8.23;;;9.70;99.90;;;;;;5084277;28;20135;-71
2023/04/24 02:53:16;;;;;;;9.88;8.88;;;9.70;99.90;;;;;;5080384;28;20064;-71
2023/04/24 02:55:41;;;;;;;11.07;9.52;;;9.70;99.90;;;;;;5083543;28;20043;-71
2023/04/24 02:58:08;;;;;;;11.40;10.07;;;9.70;99.90;;;;;;5089507;28;20139;-71
2023/04/24 03:00:34;;;;;;;11.30;10.10;;;9.70;99.90;;;;;;5084748;28;20143;-71
2023/04/24 03:03:00;;;;;;;11.23;9.73;;;9.70;99.90;;;;;;5080889;28;20143;-71
2023/04/24 03:05:27;;;;;;;10.20;8.75;;;9.70;99.90;;;;;;5087044;28;20043;-71
2023/04/24 03:07:52;;;;;;;10.93;9.45;;;9.70;99.90;;;;;;5086586;28;20100;-70
2023/04/24 03:10:18;;;;;;;10.20;9.00;;;9.70;99.90;;;;;;5084456;28;20056;-71
2023/04/24 03:12:45;;;;;;;10.15;9.13;;;9.70;99.90;;;;;;5079504;28;20117;-71
2023/04/24 03:15:11;;;;;;;12.00;8.57;;;9.70;99.90;;;;;;5079577;28;20049;-71
2023/04/24 03:17:36;;;;;;;11.32;9.82;;;9.60;99.90;;;;;;5087002;28;20040;-71
2023/04/24 03:20:05;;;;;;;11.05;9.95;;;9.60;99.90;;;;;;5077874;28;20052;-71
2023/04/24 03:22:32;;;;;;;12.68;10.55;;;9.60;99.90;;;;;;5083768;28;20097;-71
2023/04/24 03:24:58;;;;;;;12.68;10.73;;;9.60;99.90;;;;;;5086844;28;20055;-71
2023/04/24 03:27:23;;;;;;;13.00;10.95;;;9.60;99.90;;;;;;5075144;28;20048;-71
2023/04/24 03:29:53;;;;;;;12.73;10.80;;;9.60;99.90;;;;;;5074672;28;20056;-71
2023/04/24 03:32:19;;;;;;;11.00;9.90;;;9.60;99.90;;;;;;5077700;28;20063;-71
2023/04/24 03:34:45;;;;;;;12.02;10.55;;;9.60;99.90;;;;;;5093540;28;20047;-71
2023/04/24 03:37:10;;;;;;;12.80;11.48;;;9.60;99.90;;;;;;5090059;28;20047;-71
2023/04/24 03:39:36;;;;;;;13.20;10.63;;;9.50;99.90;;;;;;5087092;28;20108;-72
2023/04/24 03:42:02;;;;;;;11.65;10.45;;;9.60;99.90;;;;;;5081973;28;20048;-71
2023/04/24 03:44:27;;;;;;;9.95;9.05;;;9.60;99.90;;;;;;5112352;27;20070;-71
2023/04/24 03:46:53;;;;;;;10.18;9.18;;;9.50;99.90;;;;;;5083455;28;20054;-71
2023/04/24 03:49:19;;;;;;;12.85;11.35;;;9.50;99.90;;;;;;5062118;28;20485;-71
2023/04/24 03:51:45;;;;;;;11.82;10.63;;;9.50;99.90;;;;;;5088793;28;20542;-71
2023/04/24 03:54:10;;;;;;;10.73;9.73;;;9.60;99.90;;;;;;5080466;28;20056;-71
2023/04/24 03:56:36;;;;;;;10.63;9.63;;;9.60;99.90;;;;;;5074941;28;20079;-71
2023/04/24 03:59:02;;;;;;;11.15;10.05;;;9.50;99.90;;;;;;5087465;28;20103;-71
2023/04/24 04:01:28;;;;;;;10.05;8.93;;;9.50;99.90;;;;;;5089608;28;20106;-71
2023/04/24 04:03:53;;;;;;;11.57;9.13;;;9.50;99.90;;;;;;5089517;28;20052;-71
2023/04/24 04:06:21;;;;;;;13.93;10.02;;;9.50;99.90;;;;;;5083260;28;20505;-71
2023/04/24 04:08:47;;;;;;;12.20;10.77;;;9.50;99.90;;;;;;5067535;28;20412;-71
2023/04/24 04:11:13;;;;;;;9.80;8.80;;;9.50;99.90;;;;;;5090381;28;20044;-71
2023/04/24 04:13:38;;;;;;;10.65;9.52;;;9.50;99.90;;;;;;5089872;28;20416;-71
2023/04/24 04:16:04;;;;;;;11.27;8.98;;;9.50;99.90;;;;;;5083974;28;20166;-71
2023/04/24 04:18:31;;;;;;;10.65;9.65;;;9.50;99.90;;;;;;5085569;28;20040;-71
2023/04/24 04:20:56;;;;;;;9.75;8.82;;;9.60;99.90;;;;;;5084473;28;20032;-71
2023/04/24 04:23:23;;;;;;;10.48;9.25;;;9.50;99.90;;;;;;5083659;28;20464;-71
2023/04/24 04:25:49;;;;;;;10.77;9.30;;;9.50;99.90;;;;;;5087345;28;20052;-71
2023/04/24 04:28:15;;;;;;;10.90;9.35;;;9.50;99.90;;;;;;5081121;28;20048;-71
2023/04/24 04:30:41;;;;;;;8.73;7.82;;;9.50;99.90;;;;;;5084904;28;20032;-71
2023/04/24 04:33:07;;;;;;;10.18;9.18;;;9.50;99.90;;;;;;5077801;28;20088;-71
2023/04/24 04:35:33;;;;;;;10.98;9.02;;;9.50;99.90;;;;;;5071374;28;20075;-71
2023/04/24 04:37:59;;;;;;;10.73;9.63;;;9.50;99.90;;;;;;5079984;28;20083;-71
2023/04/24 04:40:25;;;;;;;12.07;9.23;;;9.50;99.90;;;;;;5086500;28;20062;-71
2023/04/24 04:42:52;;;;;;;11.60;9.55;;;9.50;99.90;;;;;;5087859;28;20059;-71
2023/04/24 04:45:20;;;;;;;11.40;10.05;;;9.50;99.90;;;;;;5084491;28;20889;-71
2023/04/24 04:47:46;;;;;;;10.67;9.57;;;9.50;99.90;;;;;;5075034;28;20481;-71
2023/04/24 04:50:12;;;;;;;14.73;10.05;;;9.50;99.90;;;;;;5068019;28;20313;-71
2023/04/24 04:52:38;;;;;;;11.48;9.57;;;9.60;99.90;;;;;;5084935;28;20052;-71
2023/04/24 04:55:05;;;;;;;12.35;9.90;;;9.60;99.90;;;;;;5088569;28;20036;-70
2023/04/24 04:57:30;;;;;;;10.23;8.98;;;9.50;99.90;;;;;;5085446;28;20117;-71
2023/04/24 04:59:56;;;;;;;11.98;9.63;;;9.60;99.90;;;;;;5082546;28;20045;-70
2023/04/24 05:02:22;;;;;;;11.95;9.88;;;9.50;99.90;;;;;;5082818;28;20063;-71
2023/04/24 05:04:47;;;;;;;10.07;8.93;;;9.60;99.90;;;;;;5081303;28;20052;-71
2023/04/24 05:07:13;;;;;;;10.45;9.45;;;9.50;99.90;;;;;;5080165;28;20040;-71
2023/04/24 05:09:39;;;;;;;10.73;9.60;;;9.50;99.90;;;;;;5085860;28;20032;-71
2023/04/24 05:12:04;;;;;;;10.80;8.90;;;9.50;99.90;;;;;;5077138;28;20085;-71
2023/04/24 05:14:30;;;;;;;9.85;8.77;;;9.50;99.90;;;;;;5077884;28;20489;-71
2023/04/24 05:16:57;;;;;;;12.10;9.40;;;9.50;99.90;;;;;;5087636;28;20443;-71
2023/04/24 05:19:22;;;;;;;11.50;9.40;;;9.50;99.90;;;;;;5109750;27;20043;-71
2023/04/24 05:21:48;;;;;;;9.52;8.20;;;9.50;99.90;;;;;;5086886;28;20082;-71
2023/04/24 05:24:14;;;;;;;10.23;7.60;;;9.40;99.90;;;;;;5083914;28;20057;-71
2023/04/24 05:26:39;;;;;;;8.45;7.57;;;9.50;99.90;;;;;;5083353;28;20097;-71
2023/04/24 05:29:05;;;;;;;12.18;9.60;;;9.40;99.90;;;;;;5087261;28;20043;-71
2023/04/24 05:31:32;;;;;;;10.18;8.60;;;9.50;99.90;;;;;;5090857;28;20397;-71
2023/04/24 05:33:57;;;;;;;8.25;7.43;;;9.50;99.90;;;;;;5082954;28;20040;-71
2023/04/24 05:36:23;;;;;;;12.65;8.55;;;9.50;99.90;;;;;;5082558;28;20073;-71
2023/04/24 05:38:49;;;;;;;8.75;6.97;;;9.50;99.90;;;;;;5082266;28;20738;-71
2023/04/24 05:41:14;;;;;;;9.32;7.75;;;9.50;99.90;;;;;;5084013;28;20131;-71
2023/04/24 05:43:40;;;;;;;9.07;7.55;;;9.50;99.90;;;;;;5081616;28;20533;-72
2023/04/24 05:46:06;;;;;;;9.40;7.20;;;9.50;99.90;;;;;;5075642;28;20075;-71
2023/04/24 05:48:31;;;;;;;11.18;7.85;;;9.50;99.90;;;;;;5075546;28;20044;-71
2023/04/24 05:50:57;;;;;;;10.18;8.30;;;9.50;99.90;;;;;;5083717;28;20050;-71
2023/04/24 05:53:23;;;;;;;9.43;8.43;;;9.50;99.90;;;;;;5080460;28;20136;-71
2023/04/24 05:55:49;;;;;;;7.68;6.57;;;9.50;99.90;;;;;;5069247;28;20044;-71
2023/04/24 05:58:15;;;;;;;8.80;7.90;;;9.50;99.90;;;;;;5077525;28;20169;-71
2023/04/24 06:00:42;;;;;;;9.52;6.85;;;9.50;99.90;;;;;;5081881;28;20602;-71
2023/04/24 06:03:08;;;;;;;10.35;8.57;;;9.50;99.90;;;;;;5083216;28;20084;-71
2023/04/24 06:05:35;;;;;;;8.25;7.20;;;9.60;99.90;;;;;;5082153;28;20036;-71
2023/04/24 06:08:00;;;;;;;8.27;7.38;;;9.60;99.90;;;;;;5077475;28;20047;-71
2023/04/24 06:10:26;;;;;;;8.60;7.15;;;9.60;99.90;;;;;;5089950;28;20112;-71
2023/04/24 06:12:51;;;;;;;10.52;7.03;;;9.70;99.90;;;;;;5079242;28;20044;-71
2023/04/24 06:15:17;;;;;;;7.57;6.63;;;9.70;99.90;;;;;;5080957;28;20083;-71
2023/04/24 06:17:43;;;;;;;7.75;6.07;;;9.70;99.90;;;;;;5082383;28;20374;-71
2023/04/24 06:20:10;;;;;;;8.38;6.82;;;9.80;99.90;;;;;;5083696;28;20128;-71
2023/04/24 06:22:36;;;;;;;9.43;6.80;;;9.80;99.90;;;;;;5078629;28;20113;-71
2023/04/24 06:25:02;;;;;;;8.02;6.22;;;9.80;99.90;;;;;;5080818;28;20311;-71
2023/04/24 06:27:27;;;;;;;6.32;5.72;;;9.80;99.90;;;;;;5081350;28;20344;-71
2023/04/24 06:29:54;;;;;;;7.13;5.10;;;9.80;99.90;;;;;;5076900;28;20052;-71
2023/04/24 06:32:23;;;;;;;5.70;5.03;;;9.90;99.90;;;;;;5080324;28;20542;-71
2023/04/24 06:34:50;;;;;;;6.03;5.35;;;9.90;99.90;;;;;;5077757;28;20187;-71
2023/04/24 06:37:16;;;;;;;6.03;5.40;;;9.90;99.90;;;;;;5078470;28;20039;-71
2023/04/24 06:39:44;;;;;;;6.53;5.47;;;9.90;99.90;;;;;;5107769;27;20524;-71
2023/04/24 06:42:09;;;;;;;10.85;4.32;;;9.90;99.90;;;;;;5069907;28;20047;-71
2023/04/24 06:44:40;;;;;;;5.28;4.78;;;10.00;99.90;;;;;;5076442;28;20094;-71
2023/04/24 06:47:15;;;;;;;5.15;4.63;;;10.00;99.90;;;;;;5077801;28;20052;-71
2023/04/24 06:49:41;;;;;;;5.35;4.50;;;10.00;99.90;;;;;;5077515;28;20056;-71
2023/04/24 06:52:06;;;;;;;6.40;4.38;;;10.00;99.90;;;;;;5080227;28;20406;-71
2023/04/24 06:54:32;;;;;;;5.85;4.65;;;10.00;99.90;;;;;;5088164;28;20409;-71
2023/04/24 06:57:02;;;;;;;5.75;4.13;;;10.10;99.90;;;;;;5085576;28;20040;-71
2023/04/24 06:59:28;;;;;;;5.80;5.20;;;10.10;99.90;;;;;;5071940;28;20044;-71
2023/04/24 07:01:54;;;;;;;6.10;4.60;;;10.10;99.90;;;;;;5079459;28;20054;-71
2023/04/24 07:04:20;;;;;;;4.97;4.47;;;10.10;99.90;;;;;;5059645;28;20048;-71
2023/04/24 07:06:47;;;;;;;6.15;5.22;;;10.20;99.90;;;;;;5075796;28;20048;-71
2023/04/24 07:09:13;;;;;;;4.97;4.50;;;10.10;99.90;;;;;;5075667;28;20076;-71
2023/04/24 07:11:40;;;;;;;4.13;3.72;;;10.20;99.90;;;;;;5075953;28;20050;-71
2023/04/24 07:14:06;;;;;;;5.35;4.30;;;10.20;99.90;;;;;;5078558;28;20049;-72
2023/04/24 07:16:32;;;;;;;5.47;4.47;;;10.20;99.90;;;;;;5075854;28;20675;-71
2023/04/24 07:18:58;;;;;;;6.00;5.22;;;10.20;99.90;;;;;;5085810;28;20048;-72
2023/04/24 07:21:25;;;;;;;6.63;4.43;;;10.20;99.90;;;;;;5086781;28;20040;-71
2023/04/24 07:23:51;;;;;;;5.55;4.95;;;10.20;99.90;;;;;;5079550;28;20417;-71
2023/04/24 07:26:16;;;;;;;4.68;4.25;;;10.20;99.90;;;;;;5082009;28;20036;-72
2023/04/24 07:28:43;;;;;;;4.53;3.72;;;10.30;99.90;;;;;;5086394;28;20059;-72
2023/04/24 07:31:10;;;;;;;6.32;4.75;;;10.30;99.90;;;;;;5083016;28;20131;-72
2023/04/24 07:33:36;;;;;;;4.88;4.30;;;10.40;99.90;;;;;;5074494;28;20086;-72
2023/04/24 07:36:02;;;;;;;7.10;5.63;;;10.40;99.90;;;;;;5088348;28;20165;-72
2023/04/24 07:38:30;;;;;;;5.47;4.57;;;10.50;99.90;;;;;;5112731;27;20105;-72
2023/04/24 07:40:55;;;;;;;6.60;4.85;;;10.50;99.90;;;;;;5088282;28;20166;-72
2023/04/24 07:43:23;;;;;;;7.22;5.60;;;10.60;99.90;;;;;;5086058;28;20123;-72
2023/04/24 07:45:49;;;;;;;8.60;6.65;;;10.60;99.90;;;;;;5087491;28;20126;-72
2023/04/24 07:48:17;;;;;;;7.20;6.05;;;10.70;99.90;;;;;;5085876;28;20063;-72
2023/04/24 07:50:44;;;;;;;7.63;6.85;;;10.70;99.90;;;;;;5087415;28;20398;-72
2023/04/24 07:53:10;;;;;;;7.13;6.00;;;10.70;99.90;;;;;;5080586;28;20056;-72
2023/04/24 07:55:36;;;;;;;7.85;5.53;;;10.70;99.90;;;;;;5078392;28;20044;-72
2023/04/24 07:58:02;;;;;;;12.35;5.95;;;10.70;99.90;;;;;;5086692;28;20048;-72
2023/04/24 08:00:28;;;;;;;6.07;5.32;;;10.70;99.90;;;;;;5075041;28;20508;-72
2023/04/24 08:02:53;;;;;;;4.38;3.97;;;10.70;99.90;;;;;;5072028;28;20040;-71
2023/04/24 08:05:19;;;;;;;6.65;3.70;;;10.70;99.90;;;;;;5080570;28;20126;-72
2023/04/24 08:07:48;;;;;;;9.02;3.50;;;10.70;99.90;;;;;;5104723;27;20068;-72
2023/04/24 08:10:14;;;;;;;3.90;3.08;;;10.70;99.90;;;;;;5081466;28;20123;-71
2023/04/24 08:12:41;;;;;;;7.85;4.28;;;10.70;99.90;;;;;;5080925;28;20052;-72
2023/04/24 08:15:07;;;;;;;4.63;4.00;;;10.60;99.90;;;;;;5085382;28;20055;-72
2023/04/24 08:17:35;;;;;;;12.40;11.40;;;10.60;99.90;;;;;;5110326;27;20044;-77
2023/04/24 08:20:05;;;;;;;6.67;4.60;;;10.60;99.90;;;;;;5085414;28;20044;-77
2023/04/24 08:22:31;;;;;;;3.97;3.47;;;10.70;99.90;;;;;;5080863;28;20044;-77
2023/04/24 08:24:58;;;;;;;5.75;4.10;;;10.70;99.90;;;;;;5082811;28;20051;-78
2023/04/24 08:27:25;;;;;;;6.13;4.65;;;10.70;99.90;;;;;;5078859;28;20066;-77
2023/04/24 08:29:52;;;;;;;6.13;3.88;;;10.70;99.90;;;;;;5081587;28;20736;-77
2023/04/24 08:32:18;;;;;;;3.53;3.17;;;10.60;99.90;;;;;;5080856;28;20772;-78
2023/04/24 08:34:45;;;;;;;4.75;3.35;;;10.50;99.90;;;;;;5080769;28;20044;-77
2023/04/24 08:37:11;;;;;;;8.70;3.78;;;10.50;99.90;;;;;;5074739;28;20082;-78
2023/04/24 08:39:37;;;;;;;7.18;4.38;;;10.40;99.90;;;;;;5112695;27;20048;-78
2023/04/24 08:42:07;;;;;;;13.35;4.10;;;10.40;99.90;;;;;;5086760;28;20096;-78
2023/04/24 08:44:36;;;;;;;8.80;5.22;;;10.40;99.90;;;;;;5076833;28;20105;-78
2023/04/24 08:47:02;;;;;;;;;;;10.40;99.90;;;;;;5074653;28;20048;-78
2023/04/24 08:49:28;;;;;;;16.48;9.75;;;10.40;99.90;;;;;;5081298;28;19965;-78
2023/04/24 08:51:54;;;;;;;15.95;11.45;;;10.30;99.90;;;;;;5062653;28;20512;-78
2023/04/24 08:54:23;;;;;;;19.90;12.32;;;10.30;99.90;;;;;;5080942;28;20052;-77
2023/04/24 08:56:50;;;;;;;21.65;13.57;;;10.20;99.90;;;;;;5075399;28;20580;-77
2023/04/24 08:59:16;;;;;;;25.88;14.48;;;10.20;99.90;;;;;;5082746;28;20090;-77
2023/04/24 09:01:42;;;;;;;27.65;14.70;;;10.20;99.90;;;;;;5074575;28;20113;-77
2023/04/24 09:04:13;;;;;;;26.50;14.75;;;10.20;99.90;;;;;;5087969;28;20048;-77
2023/04/24 09:06:39;;;;;;;28.15;19.20;;;10.20;99.90;;;;;;5078826;28;20044;-77
2023/04/24 09:09:05;;;;;;;34.28;20.25;;;10.10;99.90;;;;;;5073420;28;20051;-77
2023/04/24 09:11:35;;;;;;;31.40;18.73;;;10.10;99.90;;;;;;5102055;27;20040;-77
2023/04/24 09:14:01;;;;;;;34.10;18.17;;;10.10;99.90;;;;;;5104418;27;20052;-77
2023/04/24 09:16:27;;;;;;;26.65;19.00;;;10.00;99.90;;;;;;5065253;28;20044;-77
2023/04/24 09:18:53;;;;;;;38.58;20.95;;;10.00;99.90;;;;;;5081097;28;20504;-78
2023/04/24 09:21:21;;;;;;;29.92;19.95;;;9.90;99.90;;;;;;5089134;28;20055;-77
2023/04/24 09:23:59;;;;;;;37.42;21.40;;;9.90;99.90;;;;;;5082166;28;20040;-77
2023/04/24 09:26:25;;;;;;;34.33;20.25;;;9.90;99.90;;;;;;5078251;28;20412;-76
2023/04/24 09:28:50;;;;;;;32.35;19.35;;;9.80;99.90;;;;;;5081197;28;20048;-76
2023/04/24 09:31:21;;;;;;;30.40;19.60;;;9.80;99.90;;;;;;5085852;28;20508;-77
2023/04/24 09:34:13;;;;;;;35.13;19.77;;;9.80;99.90;;;;;;5079716;28;20493;-78
2023/04/24 09:36:41;;;;;;;40.72;19.23;;;9.70;99.90;;;;;;5081921;28;20566;-76
2023/04/24 09:39:11;;;;;;;;;;;9.70;99.90;;;;;;5083948;28;20048;-77
2023/04/24 09:41:46;;;;;;;39.28;21.70;;;9.70;99.90;;;;;;5086035;28;19924;-78
2023/04/24 09:44:17;;;;;;;36.92;19.98;;;9.60;99.90;;;;;;5076149;28;20053;-76
2023/04/24 09:46:45;;;;;;;30.00;21.55;;;9.60;99.90;;;;;;5086078;28;20412;-77
2023/04/24 09:49:14;;;;;;;32.55;22.80;;;9.60;99.90;;;;;;5119631;27;20101;-77
2023/04/24 09:51:40;;;;;;;35.28;21.85;;;9.50;99.90;;;;;;5079682;28;20052;-77
2023/04/24 09:54:18;;;;;;;30.92;21.63;;;9.60;99.90;;;;;;5082640;28;20093;-77
2023/04/24 09:56:48;;;;;;;33.65;23.77;;;9.60;99.90;;;;;;5084075;28;20056;-75
2023/04/24 09:59:15;;;;;;;32.92;20.83;;;9.60;99.90;;;;;;5085032;28;20453;-75
2023/04/24 10:01:44;;;;;;;32.25;21.27;;;9.60;99.90;;;;;;5084652;28;20050;-76
2023/04/24 10:04:24;;;;;;;29.55;20.05;;;9.70;99.90;;;;;;5085332;28;20051;-76
2023/04/24 10:06:51;;;;;;;24.08;18.23;;;9.70;99.90;;;;;;5077507;28;20102;-78
2023/04/24 10:09:18;;;;;;;27.38;18.15;;;9.70;99.90;;;;;;5084623;28;20092;-78
2023/04/24 10:11:49;;;;;;;37.15;17.95;;;9.80;99.90;;;;;;5084899;28;20504;-77
2023/04/24 10:14:17;;;;;;;29.20;19.25;;;9.80;99.90;;;;;;5071433;28;20501;-77
2023/04/24 10:16:46;;;;;;;28.58;19.00;;;9.80;99.90;;;;;;5079749;28;20045;-77
2023/04/24 10:19:13;;;;;;;28.30;17.60;;;9.70;99.90;;;;;;5071288;28;20062;-77
2023/04/24 10:21:46;;;;;;;22.92;16.85;;;9.80;99.90;;;;;;5078415;28;20066;-77
2023/04/24 10:24:17;;;;;;;31.33;17.45;;;9.70;99.90;;;;;;5085098;28;20044;-77
2023/04/24 10:26:45;;;;;;;29.08;17.23;;;9.80;99.90;;;;;;5079273;28;20097;-77
2023/04/24 10:29:12;;;;;;;23.30;16.70;;;9.80;99.90;;;;;;5072009;28;20386;-77
2023/04/24 10:31:38;;;;;;;24.75;16.83;;;9.80;99.90;;;;;;5077824;28;20610;-77
2023/04/24 10:34:09;;;;;;;26.00;18.20;;;9.80;99.90;;;;;;5103759;28;20848;-77
2023/04/24 10:36:41;;;;;;;31.13;16.77;;;9.80;99.90;;;;;;5072755;28;20048;-77
2023/04/24 10:39:12;;;;;;;27.38;14.90;;;9.80;99.90;;;;;;5075461;28;20048;-77
2023/04/24 10:41:38;;;;;;;21.90;16.33;;;9.80;99.90;;;;;;5074285;28;20044;-77
2023/04/24 10:44:09;;;;;;;24.48;17.67;;;9.80;99.90;;;;;;5070741;28;20036;-77
2023/04/24 10:46:35;;;;;;;24.60;15.05;;;9.80;99.90;;;;;;5074213;28;20588;-77
2023/04/24 10:49:08;;;;;;;21.13;14.20;;;9.90;99.90;;;;;;5085433;28;20060;-77
2023/04/24 10:51:53;;;;;;;31.25;14.32;;;9.90;99.90;;;;;;5115502;27;20617;-78
2023/04/24 10:54:44;;;;;;;22.60;12.98;;;9.90;99.90;;;;;;5113759;27;20047;-78
2023/04/24 10:57:19;;;;;;;20.25;13.25;;;9.90;99.90;;;;;;5070088;28;20044;-78
2023/04/24 10:59:46;;;;;;;13.55;10.35;;;10.00;99.90;;;;;;5108014;27;20048;-78
2023/04/24 11:02:15;;;;;;;22.05;10.73;;;10.00;99.90;;;;;;5107964;27;20127;-78
2023/04/24 11:04:42;;;;;;;15.52;9.80;;;10.00;99.90;;;;;;5075796;28;20080;-79
2023/04/24 11:07:09;;;;;;;17.25;9.30;;;10.10;99.90;;;;;;5082057;28;20044;-79
2023/04/24 11:09:36;;;;;;;25.83;10.05;;;10.00;99.90;;;;;;5086972;28;20153;-79
2023/04/24 11:12:10;;;;;;;18.20;9.23;;;10.00;99.90;;;;;;5121695;27;20087;-78
2023/04/24 11:14:55;;;;;;;19.60;8.73;;;9.90;99.90;;;;;;5083180;28;20040;-79
2023/04/24 11:17:37;;;;;;;12.05;7.95;;;9.90;99.90;;;;;;5078568;28;20048;-78
2023/04/24 11:20:11;;;;;;;31.73;7.00;;;9.90;99.90;;;;;;5115312;27;20055;-79
2023/04/24 11:22:41;;;;;;;12.07;7.32;;;9.90;99.90;;;;;;5082866;28;20040;-79
2023/04/24 11:25:11;;;;;;;12.20;7.55;;;9.90;99.90;;;;;;5075002;28;20599;-78
2023/04/24 11:27:45;;;;;;;22.67;8.02;;;9.90;99.90;;;;;;5083789;28;20612;-79
2023/04/24 11:30:20;;;;;;;12.93;7.93;;;10.00;99.90;;;;;;5087774;28;20139;-79
2023/04/24 11:32:51;;;;;;;11.90;7.57;;;10.10;99.90;;;;;;5081413;28;20056;-79
2023/04/24 11:35:24;;;;;;;12.07;7.03;;;10.20;99.90;;;;;;5070723;28;20127;-79
2023/04/24 11:37:54;;;;;;;13.60;6.72;;;10.30;99.90;;;;;;5085586;28;20051;-79
2023/04/24 11:40:25;;;;;;;19.85;7.40;;;10.40;99.90;;;;;;5070452;28;20045;-79
2023/04/24 11:42:52;;;;;;;9.93;6.35;;;10.40;99.90;;;;;;5076971;28;20090;-79
2023/04/24 11:45:28;;;;;;;15.50;6.47;;;10.40;99.90;;;;;;5082081;28;20078;-79
2023/04/24 11:47:53;;;;;;;14.30;6.22;;;10.30;99.90;;;;;;5111027;27;20321;-79
2023/04/24 11:50:22;;;;;;;13.13;5.88;;;10.30;99.90;;;;;;5083440;28;20044;-78
2023/04/24 11:52:50;;;;;;;11.27;5.90;;;10.30;99.90;;;;;;5072557;28;20098;-79
2023/04/24 11:55:16;;;;;;;11.50;6.03;;;10.20;99.90;;;;;;5087421;28;20036;-78
2023/04/24 11:57:46;;;;;;;7.05;5.13;;;10.20;99.90;;;;;;5086801;28;20156;-78
2023/04/24 12:00:20;;;;;;;16.02;6.60;;;10.20;99.90;;;;;;5086049;28;20093;-79
2023/04/24 12:02:46;;;;;;;13.57;6.05;;;10.20;99.90;;;;;;5081802;28;20101;-79
2023/04/24 12:05:26;;;;;;;15.38;6.50;;;10.20;99.90;;;;;;5080566;28;20040;-77
2023/04/24 12:07:53;;;;;;;8.10;5.78;;;10.30;99.90;;;;;;5083198;28;20044;-78
2023/04/24 12:10:27;;;;;;;9.07;5.40;;;10.30;99.90;;;;;;5077538;28;20406;-79
2023/04/24 12:12:53;;;;;;;10.85;5.05;;;10.30;99.90;;;;;;5076880;28;20080;-79
2023/04/24 12:15:20;;;;;;;15.90;4.93;;;10.30;99.90;;;;;;5086940;28;20196;-78
2023/04/24 12:17:46;;;;;;;15.15;5.47;;;10.20;99.90;;;;;;5109860;27;20161;-79
2023/04/24 12:20:14;;;;;;;14.43;5.22;;;10.20;99.90;;;;;;5081610;28;20051;-79
2023/04/24 12:22:57;;;;;;;5.63;4.25;;;10.20;99.90;;;;;;5083364;28;20062;-79
2023/04/24 12:25:25;;;;;;;9.07;4.30;;;10.10;99.90;;;;;;5080492;28;20086;-78
2023/04/24 12:28:04;;;;;;;10.60;5.03;;;10.10;99.90;;;;;;5065852;28;20051;-79
2023/04/24 12:30:33;;;;;;;7.90;4.72;;;10.00;99.90;;;;;;5079374;28;20043;-78
2023/04/24 12:33:00;;;;;;;5.18;4.07;;;9.90;99.90;;;;;;5065111;28;20101;-78
2023/04/24 12:35:28;;;;;;;11.50;5.30;;;9.90;99.90;;;;;;5082312;28;20044;-79
2023/04/24 12:37:54;;;;;;;8.32;4.97;;;9.90;99.90;;;;;;5075255;28;20105;-79
2023/04/24 12:40:21;;;;;;;7.75;4.47;;;9.80;99.90;;;;;;5084293;28;20032;-78
2023/04/24 12:42:51;;;;;;;7.70;4.30;;;9.80;99.90;;;;;;5083822;28;20052;-78
2023/04/24 12:45:23;;;;;;;5.43;4.15;;;10.00;99.90;;;;;;5071830;28;20123;-79